Time;durP1;ratioP1;P1;durP2;ratioP2;P2;SDS_P1;SDS_P2;PMS_P1;PMS_P2;Temp;Humidity;BMP_temperature;BMP_pressure;BME280_temperature;BME280_humidity;BME280_pressure;Samples;Min_cycle;Max_cycle;Signal;HPM_P1;HPM_P2
2022/01/01 10:50:41;;;;;;;8.15;4.72;;;;;;;;;;5441532;23;20524;-95
2022/01/01 10:53:14;;;;;;;9.63;4.65;;;;;;;;;;4985749;28;20046;-95
2022/01/01 10:55:45;;;;;;;9.45;4.60;;;;;;;;;;4993604;28;20034;-95
2022/01/01 10:58:16;;;;;;;14.27;5.60;;;;;;;;;;4968723;28;20027;-95
2022/01/01 11:00:44;;;;;;;8.45;5.22;;;;;;;;;;4987433;28;20077;-95
2022/01/01 11:03:17;;;;;;;13.85;6.07;;;;;;;;;;4973602;28;20070;-94
2022/01/01 11:05:43;;;;;;;4.90;3.95;;;;;;;;;;4972356;28;20439;-94
2022/01/01 11:08:10;;;;;;;8.98;4.10;;;;;;;;;;4980345;28;20037;-94
2022/01/01 11:10:37;;;;;;;7.07;3.97;;;;;;;;;;4967364;28;20118;-95
2022/01/01 11:13:05;;;;;;;;;;;15.90;64.90;;;;;;4982285;28;20058;-95
2022/01/01 11:15:37;;;;;;;5.85;2.90;;;;;;;;;;4985430;28;19910;-95
2022/01/01 11:18:08;;;;;;;10.40;3.90;;;;;;;;;;4990542;28;20090;-95
2022/01/01 11:20:56;;;;;;;7.90;4.32;;;;;;;;;;4984767;28;20035;-95
2022/01/01 11:23:23;;;;;;;6.75;5.43;;;;;;;;;;4983296;28;20038;-95
2022/01/01 11:25:51;;;;;;;9.13;4.95;;;;;;;;;;4968333;28;20022;-95
2022/01/01 11:28:18;;;;;;;10.48;4.13;;;;;;;;;;4964088;28;20035;-95
2022/01/01 11:30:49;;;;;;;5.82;4.18;;;;;;;;;;4984298;28;20029;-95
2022/01/01 11:33:18;;;;;;;7.47;3.58;;;;;;;;;;4986837;28;20027;-95
2022/01/01 11:45:36;;;;;;;7.07;4.45;;;18.00;59.90;;;;;;4981697;23;20130;-96
2022/01/01 11:48:41;;;;;;;14.70;5.32;;;18.20;60.10;;;;;;4979841;28;20061;-96
2022/01/01 11:51:33;;;;;;;5.57;4.05;;;18.30;53.90;;;;;;4980804;28;20008;-96
2022/01/01 11:54:02;;;;;;;3.83;2.53;;;;;;;;;;4979205;28;20083;-96
2022/01/01 11:56:52;;;;;;;6.78;3.60;;;;;;;;;;4980288;28;20039;-96
2022/01/01 11:59:28;;;;;;;6.93;4.45;;;;;;;;;;4979091;28;20030;-96
2022/01/01 12:02:00;;;;;;;12.68;5.07;;;;;;;;;;4979590;28;20055;-96
2022/01/01 12:04:28;;;;;;;8.13;4.72;;;;;;;;;;4980447;28;20023;-96
2022/01/01 12:07:19;;;;;;;10.10;4.35;;;;;;;;;;4980024;28;20027;-95
2022/01/01 12:23:36;;;;;;;4.15;2.10;;;;;;;;;;4968442;28;20078;-94
2022/01/01 12:26:06;;;;;;;3.97;2.47;;;;;;;;;;4964334;29;20038;-94
2022/01/01 12:28:35;;;;;;;4.40;1.67;;;;;;;;;;4967314;28;20059;-95
2022/01/01 12:31:15;;;;;;;3.67;1.92;;;;;;;;;;4946186;29;20038;-96
2022/01/01 12:33:49;;;;;;;2.65;1.77;;;;;;;;;;4962458;29;20046;-95
2022/01/01 12:36:20;;;;;;;1.88;1.55;;;;;;;;;;4965510;28;20039;-95
2022/01/01 12:38:53;;;;;;;2.55;1.85;;;;;;;;;;4975287;28;20047;-95
2022/01/01 12:41:37;;;;;;;4.78;2.33;;;;;;;;;;4949206;29;20103;-94
2022/01/01 12:44:07;;;;;;;1.45;1.27;;;;;;;;;;4972319;28;20031;-94
2022/01/01 12:46:37;;;;;;;2.78;1.42;;;;;;;;;;4962610;29;20035;-94
2022/01/01 12:49:26;;;;;;;3.85;1.65;;;;;;;;;;4956433;29;20040;-95
2022/01/01 12:52:01;;;;;;;2.28;1.38;;;;;;;;;;4970163;29;20059;-95
2022/01/01 12:55:16;;;;;;;1.77;1.10;;;;;;;;;;4947282;29;20035;-96
2022/01/01 12:58:39;;;;;;;2.42;1.00;;;;;;;;;;4955727;29;20036;-96
2022/01/01 13:01:45;;;;;;;3.92;1.70;;;;;;;;;;4915586;29;20013;-96
2022/01/01 13:04:35;;;;;;;3.83;1.45;;;;;;;;;;4926562;29;20074;-96
2022/01/01 13:07:27;;;;;;;1.13;1.05;;;;;;;;;;4934330;29;20064;-94
2022/01/01 13:13:45;;;;;;;2.10;0.93;;;;;;;;;;4916250;28;20040;-95
2022/01/01 13:20:24;;;;;;;0.77;0.63;;;16.10;64.90;;;;;;4896731;29;20045;-96
2022/01/01 13:23:29;;;;;;;2.05;1.23;;;;;;;;;;4839715;29;20027;-95
2022/01/01 13:26:23;;;;;;;1.95;1.60;;;;;;;;;;4841459;29;20075;-96
2022/01/01 13:29:20;;;;;;;2.10;0.90;;;;;;;;;;4840953;29;20027;-96
2022/01/01 13:35:55;;;;;;;3.28;1.00;;;15.80;66.90;;;;;;4838299;29;20374;-96
2022/01/01 13:42:17;;;;;;;3.20;1.15;;;;;;;;;;4805185;30;20086;-95
2022/01/01 13:45:39;;;;;;;1.05;0.70;;;15.40;69.90;;;;;;4794297;30;20076;-96
2022/01/01 13:51:42;;;;;;;4.18;1.17;;;;;;;;;;4804057;29;20069;-96
2022/01/01 13:55:04;;;;;;;1.83;1.10;;;;;;;;;;4801439;30;20039;-96
2022/01/01 13:58:31;;;;;;;1.95;1.33;;;;;;;;;;4755588;29;20045;-96
2022/01/01 14:17:11;;;;;;;1.55;1.30;;;;;;;;;;4737215;30;20114;-96
2022/01/01 14:20:23;;;;;;;1.40;1.10;;;;;;;;;;4753479;30;20036;-95
2022/01/01 15:36:16;;;;;;;7.35;4.18;;;13.60;81.10;;;;;;6144199;23;20985;31
